Latest Weather Observations for Montague Island

IDN60801

Issued at 8:32 pm EDT Friday 16 November 2018 (issued every 10 minutes, with the page automatically refreshed every 10 minutes)

About weather observations | Map of weather stations | Latest weather observations for NSW | Other Formats
Station Details ID: 069017 Name: MONTAGUE ISLAND LIGHTHOUSE Lat: -36.25 Lon: 150.23 Height: 52.0 m
Data from the previous 72 hours. | See also: Recent months at Montague Island
Date/Time
EDT
Temp
°C
App
Temp
°C
Dew
Point
°C
Rel
Hum
%
Delta-T
°C
Wind Press
QNH
hPa
Press
MSL
hPa
Rain since
9am
mm
Dir  Spd
km/h
Gust
km/h
Spd
kts
Gust
kts
16/08:30pm 18.1 15.1 12.1 68 3.3 NNE 19 22 10 12 1018.7 1018.6 0.0
16/08:00pm 18.1 15.5 12.1 68 3.3 NE 17 24 9 13 1018.5 1018.4 0.0
16/07:30pm 18.1 15.5 12.1 68 3.3 NE 17 24 9 13 1018.4 1018.3 0.0
16/07:00pm 18.2 15.0 11.3 64 3.8 NE 19 24 10 13 1018.3 1018.2 0.0
16/06:30pm 18.3 15.0 10.9 62 4.0 NE 19 24 10 13 1018.2 1018.1 0.0
16/06:00pm 18.4 15.0 11.2 63 3.9 NE 20 24 11 13 1018.0 1017.9 0.0
16/05:30pm 18.6 15.4 11.2 62 4.0 NE 19 24 10 13 1018.2 1018.1 0.0
16/05:00pm 18.6 14.7 10.9 61 4.2 NE 22 28 12 15 1018.1 1018.0 0.0
16/04:30pm 18.3 16.2 12.3 68 3.3 NE 15 22 8 12 1018.3 1018.2 0.0
16/04:00pm 18.6 18.1 12.6 68 3.4 ENE 7 13 4 7 1018.3 1018.2 0.0
16/03:30pm 19.1 18.9 13.1 68 3.4 E 6 11 3 6 1018.8 1018.7 0.0
16/03:00pm 18.5 18.4 12.0 66 3.6 ENE 4 9 2 5 1019.3 1019.2 0.0
16/02:30pm 18.2 18.7 11.7 66 3.6 CALM 0 7 0 4 1019.7 1019.6 0.0
16/02:00pm 18.3 18.8 11.6 65 3.7 CALM 0 2 0 1 1020.1 1020.0 0.0
16/01:30pm 18.3 18.8 11.6 65 3.7 CALM 0 6 0 3 1020.5 1020.4 0.0
16/01:00pm 18.6 18.9 12.1 66 3.6 SSE 2 7 1 4 1020.8 1020.7 0.0
16/12:30pm 17.9 17.9 11.2 65 3.6 SSE 2 9 1 5 1021.2 1021.1 0.0
16/12:00pm 19.4 19.4 12.4 64 3.9 SW 4 9 2 5 1021.3 1021.2 0.0
16/11:30am 18.8 18.8 12.3 66 3.6 W 4 9 2 5 1021.7 1021.6 0.0
16/11:00am 18.1 16.7 12.1 68 3.3 WSW 11 15 6 8 1021.8 1021.7 0.0
16/10:30am 17.9 16.6 12.4 70 3.1 SW 11 17 6 9 1021.9 1021.8 0.0
16/10:00am 17.3 15.6 12.4 73 2.7 SW 13 20 7 11 1021.9 1021.8 0.0
16/09:30am 16.8 14.9 11.9 73 2.7 SW 13 17 7 9 1022.0 1021.9 0.0
16/09:00am 16.5 14.3 12.1 75 2.4 SW 15 20 8 11 1022.1 1022.0 0.0
16/08:30am 15.9 13.6 11.9 77 2.2 SW 15 20 8 11 1022.3 1022.2 0.0
16/08:00am 15.3 13.0 11.7 79 1.9 SSW 15 19 8 10 1022.2 1022.1 0.0
16/07:30am 14.7 12.6 11.3 80 1.8 SW 13 19 7 10 1022.3 1022.2 0.0
16/07:00am 14.5 11.6 11.1 80 1.8 SW 17 22 9 12 1022.3 1022.2 0.0
16/06:30am 14.6 11.4 11.2 80 1.8 SW 19 24 10 13 1022.1 1022.0 0.0
16/06:00am 14.5 10.7 11.1 80 1.8 SW 22 32 12 17 1022.0 1021.9 0.0
16/05:30am 14.5 10.3 11.1 80 1.8 SW 24 30 13 16 1021.9 1021.8 0.0
16/05:00am 14.5 10.2 10.7 78 2.0 SW 24 30 13 16 1021.9 1021.8 0.0
16/04:30am 14.4 9.6 10.2 76 2.2 SW 26 33 14 18 1021.8 1021.7 0.0
16/04:00am 14.9 9.4 10.5 75 2.3 SW 30 35 16 19 1022.1 1022.0 0.0
16/03:30am 15.0 10.5 10.2 73 2.5 SW 24 33 13 18 1022.2 1022.1 0.0
16/03:00am 15.0 10.7 10.8 76 2.2 SW 24 30 13 16 1022.3 1022.2 0.0
16/02:30am 15.4 10.8 11.0 75 2.3 SSW 26 35 14 19 1022.6 1022.5 0.0
16/02:00am 15.3 10.5 9.0 66 3.2 SW 24 33 13 18 1022.9 1022.8 0.0
16/01:30am 15.4 10.3 9.3 67 3.1 SSW 26 35 14 19 1023.2 1023.1 0.0
16/01:00am 15.4 10.3 9.1 66 3.2 SW 26 33 14 18 1023.5 1023.4 0.0
16/12:30am 15.4 10.1 8.6 64 3.5 SW 26 33 14 18 1023.7 1023.6 0.0
16/12:00am 15.4 9.7 8.2 62 3.6 SW 28 37 15 20 1023.9 1023.8 0.0
 
Date/Time
EDT
Temp
°C
App
Temp
°C
Dew
Point
°C
Rel
Hum
%
Delta-T
°C
Wind Press
QNH
hPa
Press
MSL
hPa
Rain since
9am
mm
Dir  Spd
km/h
Gust
km/h
Spd
kts
Gust
kts
15/11:30pm 15.6 9.2 6.9 56 4.3 SW 30 37 16 20 1024.1 1024.0 0.0
15/11:00pm 15.7 9.0 7.5 58 4.1 SW 32 37 17 20 1024.2 1024.1 0.0
15/10:30pm 16.0 9.3 8.2 60 4.0 SSW 33 41 18 22 1024.0 1023.9 0.0
15/10:00pm 16.2 9.6 8.7 61 3.8 SSW 33 43 18 23 1023.9 1023.8 0.0
15/09:30pm 16.4 9.2 9.1 62 3.8 S 37 46 20 25 1023.7 1023.6 0.0
15/09:00pm 16.4 8.2 8.1 58 4.2 S 41 54 22 29 1023.2 1023.1 0.0
15/08:30pm 16.7 7.9 7.1 53 4.8 S 43 52 23 28 1023.0 1022.9 0.0
15/08:00pm 16.8 8.0 7.2 53 4.8 SSE 43 54 23 29 1022.8 1022.7 0.0
15/07:30pm 16.6 7.2 8.8 60 4.0 SSE 48 59 26 32 1022.2 1022.1 0.0
15/07:00pm 16.5 7.2 9.0 61 3.9 SSE 48 57 26 31 1022.0 1021.9 0.0
15/06:30pm 16.5 7.8 10.1 66 3.4 SSE 46 57 25 31 1021.7 1021.6 0.0
15/06:00pm 16.6 8.3 11.3 71 2.9 SSE 46 54 25 29 1021.5 1021.4 0.0
15/05:30pm 16.7 9.7 11.4 71 2.9 SSE 39 48 21 26 1021.4 1021.3 0.0
15/05:00pm 16.7 9.5 11.8 73 2.7 SSE 41 50 22 27 1021.0 1020.9 0.0
15/04:30pm 17.1 10.1 11.4 69 3.1 S 39 48 21 26 1020.8 1020.7 0.0
15/04:00pm 16.9 10.0 11.6 71 2.9 S 39 48 21 26 1020.6 1020.5 0.0
15/03:30pm 17.4 9.5 10.8 65 3.6 S 43 54 23 29 1020.3 1020.2 0.0
15/03:00pm 17.3 9.8 10.9 66 3.4 S 41 52 22 28 1020.4 1020.3 0.0
15/02:30pm 17.0 10.1 11.7 71 2.9 SSE 39 46 21 25 1020.8 1020.7 0.0
15/02:00pm 17.2 10.3 11.5 69 3.1 SSE 39 46 21 25 1020.7 1020.6 0.0
15/01:30pm 17.4 11.6 11.4 68 3.3 S 33 43 18 23 1020.7 1020.6 0.0
15/01:00pm 16.8 11.3 12.3 75 2.5 SSE 33 43 18 23 1020.7 1020.6 0.0
15/12:30pm 16.5 10.1 12.1 75 2.4 SSE 37 46 20 25 1020.6 1020.5 0.0
15/12:00pm 16.7 9.6 12.3 75 2.4 SSE 41 48 22 26 1020.6 1020.5 0.0
15/11:30am 17.1 10.0 12.2 73 2.7 SSE 41 50 22 27 1020.4 1020.3 0.0
15/11:00am 17.1 11.3 12.6 75 2.5 SSE 35 46 19 25 1020.5 1020.4 0.0
15/10:30am 17.0 10.8 12.7 76 2.4 S 37 44 20 24 1020.5 1020.4 0.0
15/10:00am 17.1 10.1 12.6 75 2.5 S 41 48 22 26 1020.0 1019.9 0.0
15/09:30am 17.2 11.0 12.7 75 2.5 S 37 46 20 25 1019.8 1019.7 0.0
15/09:00am 17.0 10.1 12.9 77 2.3 S 41 50 22 27 1019.4 1019.3 3.4
15/08:30am 17.0 9.7 12.7 76 2.4 S 43 50 23 27 1019.2 1019.1 3.4
15/08:00am 16.5 9.9 12.7 78 2.1 S 39 50 21 27 1018.7 1018.6 3.4
15/07:30am 16.3 8.4 12.8 80 1.9 S 46 56 25 30 1018.0 1017.9 3.4
15/07:00am 16.2 8.8 13.1 82 1.7 S 44 57 24 31 1017.4 1017.3 3.4
15/06:30am 15.9 8.8 14.1 89 1.0 S 44 56 24 30 1017.2 1017.1 3.4
15/06:00am 16.1 9.1 14.3 89 1.0 S 44 54 24 29 1017.0 1016.9 3.4
15/05:30am 15.9 8.6 14.4 91 0.9 S 46 56 25 30 1016.4 1016.3 3.4
15/05:00am 16.3 9.8 15.2 93 0.6 S 43 50 23 27 1016.0 1015.9 3.4
15/04:30am 16.7 10.8 15.6 93 0.6 SSW 41 48 22 26 1015.8 1015.7 3.4
15/04:00am 17.4 11.3 16.3 93 0.7 SSE 43 50 23 27 1015.3 1015.2 3.4
15/03:30am 17.8 13.5 17.0 95 0.5 S 35 41 19 22 1015.4 1015.3 3.4
15/03:00am 17.4 13.7 16.9 97 0.3 S 32 37 17 20 1015.1 1015.0 3.4
15/02:30am 17.2 14.5 16.7 97 0.3 SSW 26 32 14 17 1015.1 1015.0 3.4
15/02:00am 17.1 15.2 16.6 97 0.3 SSW 22 28 12 15 1015.2 1015.1 3.4
15/01:30am 17.1 15.2 16.6 97 0.3 SW 22 30 12 16 1015.3 1015.2 3.4
15/01:00am 17.1 14.8 16.6 97 0.3 SW 24 32 13 17 1015.4 1015.3 3.4
15/12:30am 17.1 15.2 16.6 97 0.3 SW 22 26 12 14 1015.3 1015.2 3.4
15/12:00am 17.2 15.7 16.7 97 0.3 SSW 20 26 11 14 1015.3 1015.2 3.2
 
Date/Time
EDT
Temp
°C
App
Temp
°C
Dew
Point
°C
Rel
Hum
%
Delta-T
°C
Wind Press
QNH
hPa
Press
MSL
hPa
Rain since
9am
mm
Dir  Spd
km/h
Gust
km/h
Spd
kts
Gust
kts
14/11:30pm 17.3 15.8 16.8 97 0.3 SSW 20 26 11 14 1015.5 1015.4 3.2
14/11:00pm 17.4 15.2 16.9 97 0.3 SW 24 30 13 16 1015.6 1015.5 3.2
14/10:30pm 17.5 15.7 17.0 97 0.3 SSW 22 28 12 15 1015.4 1015.3 3.2
14/10:00pm 17.5 16.3 17.0 97 0.3 SSW 19 24 10 13 1015.3 1015.2 3.2
14/09:30pm 17.6 16.2 17.1 97 0.3 SSW 20 24 11 13 1015.3 1015.2 3.2
14/09:00pm 17.6 16.8 17.1 97 0.3 SW 17 20 9 11 1015.2 1015.1 3.2
14/08:30pm 17.7 16.6 17.2 97 0.3 SSW 19 22 10 12 1014.8 1014.7 3.2
14/08:00pm 17.8 16.1 17.3 97 0.3 S 22 26 12 14 1014.2 1014.1 3.2
14/07:30pm 17.7 16.0 17.2 97 0.3 S 22 28 12 15 1014.0 1013.9 3.2
14/07:00pm 17.7 15.2 17.1 96 0.4 S 26 32 14 17 1013.7 1013.6 3.2
14/06:30pm 17.9 16.2 17.1 95 0.5 SSE 22 28 12 15 1013.4 1013.2 3.2
14/06:00pm 18.3 16.9 17.1 93 0.7 SSE 20 24 11 13 1013.1 1012.9 3.2
14/05:30pm 19.1 18.0 17.8 92 0.8 S 20 26 11 14 1012.9 1012.8 3.2
14/05:00pm 19.5 18.0 17.8 90 1.0 SSW 22 28 12 15 1013.1 1012.9 3.2
14/04:30pm 20.4 19.5 19.1 92 0.8 NNW 22 30 12 16 1012.6 1012.5 3.2
14/04:00pm 19.1 15.7 18.1 94 0.6 NNW 33 44 18 24 1012.4 1012.3 3.2
14/03:40pm 19.4 16.0 18.1 92 0.8 N 33 44 18 24 1012.2 1012.1 2.6
14/03:30pm 19.7 14.6 17.8 89 1.2 N 41 50 22 27 1012.0 1011.9 1.8
14/03:00pm 20.1 15.2 18.2 89 1.2 NNE 41 48 22 26 1012.1 1012.0 1.8
14/02:30pm 19.6 14.2 18.3 92 0.8 NNE 44 56 24 30 1012.2 1012.1 1.8
14/02:00pm 19.3 14.5 18.3 94 0.6 NNE 41 48 22 26 1012.6 1012.5 1.8
14/01:30pm 19.2 15.2 18.4 95 0.5 NNE 37 48 20 26 1012.9 1012.8 1.6
14/01:00pm 19.4 15.8 18.6 95 0.5 NNE 35 44 19 24 1013.1 1012.9 1.6
14/12:30pm 19.2 16.5 18.5 96 0.4 N 30 37 16 20 1013.5 1013.4 1.6
14/12:00pm 19.1 16.4 18.4 96 0.4 NNE 30 35 16 19 1013.8 1013.7 1.6
14/11:30am 19.1 16.4 18.4 96 0.4 NNE 30 37 16 20 1014.0 1013.9 1.6
14/11:00am 18.8 16.5 18.5 98 0.2 N 28 37 15 20 1014.2 1014.1 1.4
14/10:30am 18.6 16.2 18.3 98 0.2 N 28 37 15 20 1014.4 1014.3 1.2
14/10:00am 18.5 16.5 18.3 99 0.1 NNE 26 32 14 17 1014.5 1014.4 1.2
14/09:30am 18.2 18.2 18.0 99 0.1 NNE 15 22 8 12 1014.7 1014.6 0.4
14/09:00am 18.4 20.0 18.2 99 0.1 N 7 11 4 6 1014.8 1014.7 1.8
14/08:30am 18.4 20.2 18.2 99 0.1 N 6 9 3 5 1014.8 1014.7 1.2
14/08:00am 18.2 19.3 18.0 99 0.1 NW 9 13 5 7 1014.6 1014.5 1.0
14/07:30am 18.2 17.4 17.9 98 0.2 NNW 19 22 10 12 1014.1 1014.0 0.8
14/07:00am 18.2 17.4 17.9 98 0.2 N 19 24 10 13 1013.7 1013.6 0.6
14/06:30am 18.2 17.7 17.9 98 0.2 N 17 22 9 12 1013.5 1013.4 0.2
14/06:00am 18.3 17.3 18.0 98 0.2 N 20 26 11 14 1013.4 1013.2 0.2
14/05:30am 18.1 17.5 17.6 97 0.3 N 17 22 9 12 1012.8 1012.7 0.0
14/05:00am 18.3 17.4 17.8 97 0.3 N 19 24 10 13 1012.6 1012.5 0.0
14/04:30am 18.3 17.8 17.7 96 0.4 NNE 17 22 9 12 1012.3 1012.2 0.0
14/04:00am 18.5 17.7 17.9 96 0.4 N 19 26 10 14 1012.4 1012.3 0.0
14/03:30am 18.6 17.7 17.8 95 0.5 N 19 24 10 13 1012.4 1012.3 0.0
14/03:00am 18.9 16.7 17.9 94 0.6 N 26 32 14 17 1012.4 1012.3 0.0
14/02:30am 19.1 15.9 18.1 94 0.6 N 32 41 17 22 1012.7 1012.6 0.0
14/02:00am 18.9 16.0 17.9 94 0.6 N 30 41 16 22 1013.1 1012.9 0.0
14/01:30am 18.7 16.2 18.0 96 0.4 N 28 39 15 21 1013.3 1013.1 0.0
14/01:00am 18.9 15.7 18.1 95 0.5 N 32 41 17 22 1013.6 1013.5 0.0
14/12:30am 19.0 15.2 18.0 94 0.6 N 35 46 19 25 1013.7 1013.6 0.0
14/12:00am 19.1 15.7 18.1 94 0.6 N 33 43 18 23 1013.9 1013.8 0.0
 
Date/Time
EDT
Temp
°C
App
Temp
°C
Dew
Point
°C
Rel
Hum
%
Delta-T
°C
Wind Press
QNH
hPa
Press
MSL
hPa
Rain since
9am
mm
Dir  Spd
km/h
Gust
km/h
Spd
kts
Gust
kts
13/11:30pm 19.2 15.4 18.0 93 0.7 N 35 44 19 24 1013.8 1013.7 0.0
13/11:00pm 19.4 14.1 18.1 92 0.8 NNE 43 50 23 27 1014.0 1013.9 0.0
13/10:30pm 19.4 14.8 18.1 92 0.8 NNE 39 48 21 26 1014.2 1014.1 0.0
13/10:00pm 19.4 14.4 17.9 91 0.9 NNE 41 52 22 28 1014.5 1014.4 0.0
13/09:30pm 19.4 13.9 17.7 90 1.0 NNE 43 50 23 27 1014.7 1014.6 0.0
13/09:00pm 19.4 13.3 17.5 89 1.2 NNE 46 57 25 31 1014.3 1014.2 0.0

Other Formats:

Comma delimited format used in spreadsheet applications
http://www.bom.gov.au/fwo/IDN60801/IDN60801.94939.axf

JavaScript Object Notation format (JSON) in row-major order
http://www.bom.gov.au/fwo/IDN60801/IDN60801.94939.json